Terminal Aerodrome Forecast
Issued by NWS

Home | Current Version | Previous Version | Text Only | Print | Product List | Glossary On
Versions: 1 2 3 4 5 6 7 8 9 10 11 12 13 14 15
000
FTAK31 PAJN 271729
TAFAJN
TAF
PAJN 271729Z 2718/2818 08012KT 6SM -RA BR BKN030 OVC050
     FM272000 10015G25KT 5SM RA BR BKN025 OVC040
     FM280000 11020G35KT 4SM RA BR FEW006 BKN020 OVC030
      WS020/17030KT
     FM280600 11015G25KT 5SM RA BR BKN020 OVC030 WS020/17030KT
     FM281000 11010G19KT 6SM -SHRA BR BKN020 OVC030 WS020/17025KT
     FM281300 10010KT P6SM -SHRA SCT020 OVC030=

USA.gov is the U.S. government's official web portal to all federal, state and local government web resources and services.